Sedona, AZ

7:29 PM MST on September 01, 2015 (GMT -0700)
Northview | | Change Station
CLOSE
Current Station
Personal Weather Station
Location: Sedona, AZ
Elevation: 4396 ft
Nearby Weather Stations

Elev 4396 ft 34.86 °N, 111.79 °W | Updated 1 second ago

Partly Cloudy
Partly Cloudy
77.0 °F
Feels Like 78 °F
N
0.7
Wind Variable Wind from NE
Gusts 0.7 mph

Today
High -- | Low -- °F
--% Chance of Precip.
Yesterday
High -- | Low -- °F
Precip. -- in
5:59 AM 6:53 PM
Waning Gibbous, 84% visible
Pressure 30.29 in
Visibility 10.0 miles
Clouds Scattered Clouds 6500 ft
Scattered Clouds 7500 ft
Scattered Clouds 10000 ft
Heat Index 78 °F
Dew Point 55 °F
Humidity 46%
Rainfall 0.00 in
Snow Depth Not available.
UV 0 out of 12
Pollen 5.70 out of 12
Air Quality Not available.
Flu Activity Not available.
METAR KCMR 020215Z AUTO 18008KT 10SM SCT065 SCT075 SCT100 21/09 A3029 RMK AO2
Pressure 30.29 in
Visibility 10.0 miles
Clouds Scattered Clouds 6500 ft
Scattered Clouds 7500 ft
Scattered Clouds 10000 ft
Heat Index 78 °F
Dew Point 55 °F
Humidity 46%
Rainfall 0.00 in
Snow Depth Not available.
UV 0 out of 12
Pollen 5.70 out of 12
Air Quality Not available.
Flu Activity Not available.
METAR KCMR 020215Z AUTO 18008KT 10SM SCT065 SCT075 SCT100 21/09 A3029 RMK AO2

10-Day Weather Forecast

×

Almanac

Astronomy

Sep. 01, 2015 Rise Set
Actual Time
Civil Twilight
Nautical Twilight
Astronomical Twilight
Moon
Length of Visible Light
Length of Day
Tomorrow will be .
, % of the Moon is Illuminated

Today's Extremes

State Highs State Lows

Community

WunderPhotos

Upload Photos

1,851,679 photos uploaded!

WunderBlogs® & News

Nearby

Air Quality

  Air Quality AQ Index Pollutant
Not available.

Snow Depth

Station Depth Elevation

Earthquake Activity

City Distance Mag. Time & Date
Minimum magnitude displayed is 2.5.

Coastal Water Temperatures

Place Temperature

Stations

Nearby Weather Stations

Station Location Temp. Windchill Dew Point Humidity Wind Precip. Elev Updated Type